sensor_id;sensor_type;location;lat;lon;timestamp;P1;durP1;ratioP1;P2;durP2;ratioP2
7583;SDS011;3833;41.764;26.204;2023-06-24T00:00:00;6.20;;;5.50;;
7583;SDS011;3833;41.764;26.204;2023-06-24T00:02:31;5.87;;;5.03;;
7583;SDS011;3833;41.764;26.204;2023-06-24T00:04:59;7.80;;;5.90;;
7583;SDS011;3833;41.764;26.204;2023-06-24T00:07:26;5.67;;;5.17;;
7583;SDS011;3833;41.764;26.204;2023-06-24T00:09:52;6.30;;;4.87;;
7583;SDS011;3833;41.764;26.204;2023-06-24T00:12:21;6.17;;;5.30;;
7583;SDS011;3833;41.764;26.204;2023-06-24T00:14:48;6.17;;;5.07;;
7583;SDS011;3833;41.764;26.204;2023-06-24T00:17:16;6.27;;;5.67;;
7583;SDS011;3833;41.764;26.204;2023-06-24T00:19:43;5.70;;;5.10;;
7583;SDS011;3833;41.764;26.204;2023-06-24T00:22:10;5.93;;;5.33;;
7583;SDS011;3833;41.764;26.204;2023-06-24T00:24:37;6.67;;;6.07;;
7583;SDS011;3833;41.764;26.204;2023-06-24T00:27:05;5.73;;;5.23;;
7583;SDS011;3833;41.764;26.204;2023-06-24T00:29:33;5.50;;;5.00;;
7583;SDS011;3833;41.764;26.204;2023-06-24T00:32:00;5.80;;;5.13;;
7583;SDS011;3833;41.764;26.204;2023-06-24T00:34:27;7.13;;;5.43;;
7583;SDS011;3833;41.764;26.204;2023-06-24T00:36:54;6.07;;;5.50;;
7583;SDS011;3833;41.764;26.204;2023-06-24T00:39:21;5.57;;;5.07;;
7583;SDS011;3833;41.764;26.204;2023-06-24T00:41:48;5.33;;;4.83;;
7583;SDS011;3833;41.764;26.204;2023-06-24T00:44:14;5.33;;;4.83;;
7583;SDS011;3833;41.764;26.204;2023-06-24T00:46:43;6.83;;;5.10;;
7583;SDS011;3833;41.764;26.204;2023-06-24T00:49:10;6.87;;;4.97;;
7583;SDS011;3833;41.764;26.204;2023-06-24T00:51:40;5.37;;;4.77;;
7583;SDS011;3833;41.764;26.204;2023-06-24T00:54:12;5.37;;;4.87;;
7583;SDS011;3833;41.764;26.204;2023-06-24T00:56:39;4.93;;;4.43;;
7583;SDS011;3833;41.764;26.204;2023-06-24T00:59:08;5.97;;;4.93;;
7583;SDS011;3833;41.764;26.204;2023-06-24T01:01:37;6.03;;;5.40;;
7583;SDS011;3833;41.764;26.204;2023-06-24T01:04:06;5.07;;;4.57;;
7583;SDS011;3833;41.764;26.204;2023-06-24T01:06:34;5.30;;;4.80;;
7583;SDS011;3833;41.764;26.204;2023-06-24T01:09:01;4.83;;;4.20;;
7583;SDS011;3833;41.764;26.204;2023-06-24T01:11:30;6.00;;;4.43;;
7583;SDS011;3833;41.764;26.204;2023-06-24T01:13:57;5.40;;;4.90;;
7583;SDS011;3833;41.764;26.204;2023-06-24T01:16:26;6.27;;;5.63;;
7583;SDS011;3833;41.764;26.204;2023-06-24T01:18:57;5.83;;;5.23;;
7583;SDS011;3833;41.764;26.204;2023-06-24T01:21:32;5.40;;;4.90;;
7583;SDS011;3833;41.764;26.204;2023-06-24T01:24:08;5.97;;;5.30;;
7583;SDS011;3833;41.764;26.204;2023-06-24T01:26:52;6.87;;;5.40;;
7583;SDS011;3833;41.764;26.204;2023-06-24T01:29:42;5.17;;;4.67;;
7583;SDS011;3833;41.764;26.204;2023-06-24T01:32:18;5.83;;;4.70;;
7583;SDS011;3833;41.764;26.204;2023-06-24T01:34:48;5.90;;;5.30;;
7583;SDS011;3833;41.764;26.204;2023-06-24T01:37:17;5.33;;;4.60;;
7583;SDS011;3833;41.764;26.204;2023-06-24T01:39:47;6.57;;;5.90;;
7583;SDS011;3833;41.764;26.204;2023-06-24T01:42:15;6.33;;;5.70;;
7583;SDS011;3833;41.764;26.204;2023-06-24T01:44:43;7.17;;;5.00;;
7583;SDS011;3833;41.764;26.204;2023-06-24T01:47:10;6.20;;;5.60;;
7583;SDS011;3833;41.764;26.204;2023-06-24T01:49:42;6.77;;;5.40;;
7583;SDS011;3833;41.764;26.204;2023-06-24T01:52:09;5.70;;;5.20;;
7583;SDS011;3833;41.764;26.204;2023-06-24T01:54:36;5.93;;;5.33;;
7583;SDS011;3833;41.764;26.204;2023-06-24T01:57:06;6.07;;;5.47;;
7583;SDS011;3833;41.764;26.204;2023-06-24T01:59:34;5.87;;;5.33;;
7583;SDS011;3833;41.764;26.204;2023-06-24T02:02:02;8.30;;;5.23;;
7583;SDS011;3833;41.764;26.204;2023-06-24T02:04:30;7.33;;;5.70;;
7583;SDS011;3833;41.764;26.204;2023-06-24T02:06:59;6.80;;;6.10;;
7583;SDS011;3833;41.764;26.204;2023-06-24T02:09:27;6.03;;;5.53;;
7583;SDS011;3833;41.764;26.204;2023-06-24T02:11:56;6.47;;;5.87;;
7583;SDS011;3833;41.764;26.204;2023-06-24T02:14:23;6.10;;;5.37;;
7583;SDS011;3833;41.764;26.204;2023-06-24T02:16:50;5.87;;;5.33;;
7583;SDS011;3833;41.764;26.204;2023-06-24T02:19:21;6.67;;;5.53;;
7583;SDS011;3833;41.764;26.204;2023-06-24T02:21:48;6.17;;;5.57;;
7583;SDS011;3833;41.764;26.204;2023-06-24T02:24:18;6.33;;;5.70;;
7583;SDS011;3833;41.764;26.204;2023-06-24T02:26:45;6.70;;;6.00;;
7583;SDS011;3833;41.764;26.204;2023-06-24T02:29:13;7.03;;;5.43;;
7583;SDS011;3833;41.764;26.204;2023-06-24T02:31:40;7.57;;;6.30;;
7583;SDS011;3833;41.764;26.204;2023-06-24T02:34:07;7.97;;;6.37;;
7583;SDS011;3833;41.764;26.204;2023-06-24T02:36:34;8.03;;;6.23;;
7583;SDS011;3833;41.764;26.204;2023-06-24T02:39:01;7.77;;;5.40;;
7583;SDS011;3833;41.764;26.204;2023-06-24T02:41:29;6.63;;;6.00;;
7583;SDS011;3833;41.764;26.204;2023-06-24T02:43:56;6.57;;;5.97;;
7583;SDS011;3833;41.764;26.204;2023-06-24T02:46:22;7.00;;;6.30;;
7583;SDS011;3833;41.764;26.204;2023-06-24T02:48:50;6.07;;;5.57;;
7583;SDS011;3833;41.764;26.204;2023-06-24T02:51:18;7.10;;;6.37;;
7583;SDS011;3833;41.764;26.204;2023-06-24T02:53:46;7.50;;;5.57;;
7583;SDS011;3833;41.764;26.204;2023-06-24T02:56:13;6.77;;;6.07;;
7583;SDS011;3833;41.764;26.204;2023-06-24T02:58:41;6.73;;;5.77;;
7583;SDS011;3833;41.764;26.204;2023-06-24T03:01:08;7.40;;;6.17;;
7583;SDS011;3833;41.764;26.204;2023-06-24T03:03:36;6.97;;;6.37;;
7583;SDS011;3833;41.764;26.204;2023-06-24T03:06:05;7.47;;;6.73;;
7583;SDS011;3833;41.764;26.204;2023-06-24T03:08:32;6.13;;;5.53;;
7583;SDS011;3833;41.764;26.204;2023-06-24T03:10:58;8.73;;;6.47;;
7583;SDS011;3833;41.764;26.204;2023-06-24T03:13:25;7.07;;;6.37;;
7583;SDS011;3833;41.764;26.204;2023-06-24T03:15:54;7.83;;;7.03;;
7583;SDS011;3833;41.764;26.204;2023-06-24T03:18:20;6.67;;;6.07;;
7583;SDS011;3833;41.764;26.204;2023-06-24T03:20:47;6.80;;;6.10;;
7583;SDS011;3833;41.764;26.204;2023-06-24T03:23:14;6.40;;;5.70;;
7583;SDS011;3833;41.764;26.204;2023-06-24T03:25:41;8.53;;;6.30;;
7583;SDS011;3833;41.764;26.204;2023-06-24T03:28:08;6.70;;;6.00;;
7583;SDS011;3833;41.764;26.204;2023-06-24T03:30:35;9.73;;;7.03;;
7583;SDS011;3833;41.764;26.204;2023-06-24T03:33:03;6.73;;;6.13;;
7583;SDS011;3833;41.764;26.204;2023-06-24T03:35:31;8.00;;;6.53;;
7583;SDS011;3833;41.764;26.204;2023-06-24T03:37:58;7.27;;;6.57;;
7583;SDS011;3833;41.764;26.204;2023-06-24T03:40:25;8.20;;;6.50;;
7583;SDS011;3833;41.764;26.204;2023-06-24T03:42:52;7.13;;;6.43;;
7583;SDS011;3833;41.764;26.204;2023-06-24T03:45:19;7.70;;;6.20;;
7583;SDS011;3833;41.764;26.204;2023-06-24T03:47:46;7.53;;;6.33;;
7583;SDS011;3833;41.764;26.204;2023-06-24T03:50:14;6.17;;;5.57;;
7583;SDS011;3833;41.764;26.204;2023-06-24T03:52:41;8.50;;;6.53;;
7583;SDS011;3833;41.764;26.204;2023-06-24T03:55:09;6.80;;;6.10;;
7583;SDS011;3833;41.764;26.204;2023-06-24T03:57:39;6.73;;;6.13;;
7583;SDS011;3833;41.764;26.204;2023-06-24T04:00:06;6.97;;;6.27;;
7583;SDS011;3833;41.764;26.204;2023-06-24T04:02:40;7.70;;;6.90;;
7583;SDS011;3833;41.764;26.204;2023-06-24T04:05:07;7.27;;;6.57;;
7583;SDS011;3833;41.764;26.204;2023-06-24T04:07:35;7.77;;;6.57;;
7583;SDS011;3833;41.764;26.204;2023-06-24T04:10:03;6.77;;;6.17;;
7583;SDS011;3833;41.764;26.204;2023-06-24T04:12:33;8.03;;;6.37;;
7583;SDS011;3833;41.764;26.204;2023-06-24T04:15:01;8.23;;;6.00;;
7583;SDS011;3833;41.764;26.204;2023-06-24T04:17:29;6.87;;;6.17;;
7583;SDS011;3833;41.764;26.204;2023-06-24T04:19:56;7.73;;;6.30;;
7583;SDS011;3833;41.764;26.204;2023-06-24T04:22:24;8.20;;;6.40;;
7583;SDS011;3833;41.764;26.204;2023-06-24T04:24:52;6.43;;;5.80;;
7583;SDS011;3833;41.764;26.204;2023-06-24T04:27:19;7.93;;;7.03;;
7583;SDS011;3833;41.764;26.204;2023-06-24T04:29:46;9.47;;;6.70;;
7583;SDS011;3833;41.764;26.204;2023-06-24T04:32:13;6.97;;;6.37;;
7583;SDS011;3833;41.764;26.204;2023-06-24T04:34:40;7.67;;;6.67;;
7583;SDS011;3833;41.764;26.204;2023-06-24T04:37:07;7.57;;;6.87;;
7583;SDS011;3833;41.764;26.204;2023-06-24T04:39:33;9.40;;;7.00;;
7583;SDS011;3833;41.764;26.204;2023-06-24T04:42:02;8.03;;;6.77;;
7583;SDS011;3833;41.764;26.204;2023-06-24T04:44:29;7.37;;;6.67;;
7583;SDS011;3833;41.764;26.204;2023-06-24T04:46:56;8.23;;;7.30;;
7583;SDS011;3833;41.764;26.204;2023-06-24T04:49:22;8.43;;;7.00;;
7583;SDS011;3833;41.764;26.204;2023-06-24T04:51:49;7.20;;;6.50;;
7583;SDS011;3833;41.764;26.204;2023-06-24T04:54:16;7.60;;;6.90;;
7583;SDS011;3833;41.764;26.204;2023-06-24T04:56:43;10.07;;;7.20;;
7583;SDS011;3833;41.764;26.204;2023-06-24T04:59:12;9.93;;;7.87;;
7583;SDS011;3833;41.764;26.204;2023-06-24T05:01:39;8.87;;;7.00;;
7583;SDS011;3833;41.764;26.204;2023-06-24T05:04:05;8.27;;;7.03;;
7583;SDS011;3833;41.764;26.204;2023-06-24T05:06:32;10.47;;;7.77;;
7583;SDS011;3833;41.764;26.204;2023-06-24T05:08:59;7.70;;;6.97;;
7583;SDS011;3833;41.764;26.204;2023-06-24T05:11:26;7.87;;;7.10;;
7583;SDS011;3833;41.764;26.204;2023-06-24T05:13:53;10.13;;;7.63;;
7583;SDS011;3833;41.764;26.204;2023-06-24T05:16:21;8.60;;;6.90;;
7583;SDS011;3833;41.764;26.204;2023-06-24T05:18:49;8.37;;;7.47;;
7583;SDS011;3833;41.764;26.204;2023-06-24T05:21:16;9.13;;;7.37;;
7583;SDS011;3833;41.764;26.204;2023-06-24T05:23:43;7.53;;;6.83;;
7583;SDS011;3833;41.764;26.204;2023-06-24T05:26:10;8.43;;;7.53;;
7583;SDS011;3833;41.764;26.204;2023-06-24T05:28:37;8.70;;;7.27;;
7583;SDS011;3833;41.764;26.204;2023-06-24T05:31:04;7.83;;;7.17;;
7583;SDS011;3833;41.764;26.204;2023-06-24T05:33:34;7.53;;;6.83;;
7583;SDS011;3833;41.764;26.204;2023-06-24T05:36:01;8.70;;;6.97;;
7583;SDS011;3833;41.764;26.204;2023-06-24T05:38:29;7.87;;;7.10;;
7583;SDS011;3833;41.764;26.204;2023-06-24T05:40:55;7.80;;;7.00;;
7583;SDS011;3833;41.764;26.204;2023-06-24T05:43:22;10.33;;;8.20;;
7583;SDS011;3833;41.764;26.204;2023-06-24T05:45:50;9.00;;;7.53;;
7583;SDS011;3833;41.764;26.204;2023-06-24T05:48:18;8.30;;;7.10;;
7583;SDS011;3833;41.764;26.204;2023-06-24T05:50:47;10.27;;;7.63;;
7583;SDS011;3833;41.764;26.204;2023-06-24T05:53:15;8.27;;;7.47;;
7583;SDS011;3833;41.764;26.204;2023-06-24T05:55:42;7.00;;;6.40;;
7583;SDS011;3833;41.764;26.204;2023-06-24T05:58:08;9.30;;;6.93;;
7583;SDS011;3833;41.764;26.204;2023-06-24T06:00:36;7.63;;;6.43;;
7583;SDS011;3833;41.764;26.204;2023-06-24T06:03:03;7.33;;;6.63;;
7583;SDS011;3833;41.764;26.204;2023-06-24T06:05:30;9.33;;;7.40;;
7583;SDS011;3833;41.764;26.204;2023-06-24T06:07:58;9.57;;;6.63;;
7583;SDS011;3833;41.764;26.204;2023-06-24T06:10:25;7.67;;;6.87;;
7583;SDS011;3833;41.764;26.204;2023-06-24T06:12:52;8.00;;;6.50;;
7583;SDS011;3833;41.764;26.204;2023-06-24T06:15:19;7.03;;;6.07;;
7583;SDS011;3833;41.764;26.204;2023-06-24T06:17:46;7.17;;;6.47;;
7583;SDS011;3833;41.764;26.204;2023-06-24T06:20:14;8.13;;;7.13;;
7583;SDS011;3833;41.764;26.204;2023-06-24T06:22:40;7.07;;;6.40;;
7583;SDS011;3833;41.764;26.204;2023-06-24T06:25:09;9.03;;;6.93;;
7583;SDS011;3833;41.764;26.204;2023-06-24T06:27:36;7.93;;;6.67;;
7583;SDS011;3833;41.764;26.204;2023-06-24T06:30:03;11.10;;;6.80;;
7583;SDS011;3833;41.764;26.204;2023-06-24T06:32:31;7.10;;;6.40;;
7583;SDS011;3833;41.764;26.204;2023-06-24T06:34:58;6.60;;;5.97;;
7583;SDS011;3833;41.764;26.204;2023-06-24T06:37:24;9.10;;;7.03;;
7583;SDS011;3833;41.764;26.204;2023-06-24T06:39:51;7.10;;;6.27;;
7583;SDS011;3833;41.764;26.204;2023-06-24T06:42:20;7.43;;;6.67;;
7583;SDS011;3833;41.764;26.204;2023-06-24T06:44:46;6.47;;;5.57;;
7583;SDS011;3833;41.764;26.204;2023-06-24T06:47:13;6.87;;;6.23;;
7583;SDS011;3833;41.764;26.204;2023-06-24T06:49:40;6.83;;;6.23;;
7583;SDS011;3833;41.764;26.204;2023-06-24T06:52:07;7.87;;;6.40;;
7583;SDS011;3833;41.764;26.204;2023-06-24T06:54:34;7.37;;;6.50;;
7583;SDS011;3833;41.764;26.204;2023-06-24T06:57:01;7.90;;;6.40;;
7583;SDS011;3833;41.764;26.204;2023-06-24T06:59:30;8.03;;;6.43;;
7583;SDS011;3833;41.764;26.204;2023-06-24T07:01:57;7.50;;;6.57;;
7583;SDS011;3833;41.764;26.204;2023-06-24T07:04:24;6.50;;;5.90;;
7583;SDS011;3833;41.764;26.204;2023-06-24T07:06:51;7.53;;;6.47;;
7583;SDS011;3833;41.764;26.204;2023-06-24T07:09:19;7.20;;;6.20;;
7583;SDS011;3833;41.764;26.204;2023-06-24T07:11:46;7.40;;;6.70;;
7583;SDS011;3833;41.764;26.204;2023-06-24T07:14:13;7.30;;;6.53;;
7583;SDS011;3833;41.764;26.204;2023-06-24T07:16:41;7.10;;;6.13;;
7583;SDS011;3833;41.764;26.204;2023-06-24T07:19:08;6.20;;;5.70;;
7583;SDS011;3833;41.764;26.204;2023-06-24T07:21:35;6.87;;;5.80;;
7583;SDS011;3833;41.764;26.204;2023-06-24T07:24:02;8.47;;;6.20;;
7583;SDS011;3833;41.764;26.204;2023-06-24T07:26:29;8.27;;;5.87;;
7583;SDS011;3833;41.764;26.204;2023-06-24T07:28:57;6.00;;;5.40;;
7583;SDS011;3833;41.764;26.204;2023-06-24T07:31:24;6.00;;;5.47;;
7583;SDS011;3833;41.764;26.204;2023-06-24T07:33:52;7.47;;;6.17;;
7583;SDS011;3833;41.764;26.204;2023-06-24T07:36:19;6.43;;;5.83;;
7583;SDS011;3833;41.764;26.204;2023-06-24T07:38:46;6.27;;;5.67;;
7583;SDS011;3833;41.764;26.204;2023-06-24T07:41:13;7.07;;;5.83;;
7583;SDS011;3833;41.764;26.204;2023-06-24T07:43:40;6.57;;;5.53;;
7583;SDS011;3833;41.764;26.204;2023-06-24T07:46:07;6.27;;;5.67;;
7583;SDS011;3833;41.764;26.204;2023-06-24T07:48:34;6.20;;;5.60;;
7583;SDS011;3833;41.764;26.204;2023-06-24T07:51:04;6.10;;;5.53;;
7583;SDS011;3833;41.764;26.204;2023-06-24T07:53:31;8.13;;;6.23;;
7583;SDS011;3833;41.764;26.204;2023-06-24T07:55:58;6.30;;;5.70;;
7583;SDS011;3833;41.764;26.204;2023-06-24T07:58:27;5.87;;;5.30;;
7583;SDS011;3833;41.764;26.204;2023-06-24T08:00:54;5.90;;;5.30;;
7583;SDS011;3833;41.764;26.204;2023-06-24T08:03:21;7.20;;;6.07;;
7583;SDS011;3833;41.764;26.204;2023-06-24T08:05:48;5.63;;;5.13;;
7583;SDS011;3833;41.764;26.204;2023-06-24T08:08:17;5.90;;;5.03;;
7583;SDS011;3833;41.764;26.204;2023-06-24T08:10:45;6.07;;;5.47;;
7583;SDS011;3833;41.764;26.204;2023-06-24T08:13:12;6.73;;;5.77;;
7583;SDS011;3833;41.764;26.204;2023-06-24T08:15:39;5.63;;;5.00;;
7583;SDS011;3833;41.764;26.204;2023-06-24T08:18:06;5.67;;;5.07;;
7583;SDS011;3833;41.764;26.204;2023-06-24T08:20:34;5.67;;;5.00;;
7583;SDS011;3833;41.764;26.204;2023-06-24T08:23:01;5.80;;;5.10;;
7583;SDS011;3833;41.764;26.204;2023-06-24T08:25:29;5.40;;;4.80;;
7583;SDS011;3833;41.764;26.204;2023-06-24T08:27:56;5.60;;;5.00;;
7583;SDS011;3833;41.764;26.204;2023-06-24T08:30:24;6.33;;;4.60;;
7583;SDS011;3833;41.764;26.204;2023-06-24T08:32:51;5.20;;;4.80;;
7583;SDS011;3833;41.764;26.204;2023-06-24T08:35:18;5.63;;;4.83;;
7583;SDS011;3833;41.764;26.204;2023-06-24T08:37:45;4.50;;;4.10;;
7583;SDS011;3833;41.764;26.204;2023-06-24T08:40:12;4.40;;;4.10;;
7583;SDS011;3833;41.764;26.204;2023-06-24T08:42:40;4.67;;;4.27;;
7583;SDS011;3833;41.764;26.204;2023-06-24T08:45:07;4.93;;;4.50;;
7583;SDS011;3833;41.764;26.204;2023-06-24T08:47:35;5.40;;;4.83;;
7583;SDS011;3833;41.764;26.204;2023-06-24T08:50:03;5.10;;;4.60;;
7583;SDS011;3833;41.764;26.204;2023-06-24T08:52:31;5.73;;;4.63;;
7583;SDS011;3833;41.764;26.204;2023-06-24T08:55:00;4.70;;;4.27;;
7583;SDS011;3833;41.764;26.204;2023-06-24T08:57:27;5.63;;;4.67;;
7583;SDS011;3833;41.764;26.204;2023-06-24T09:00:05;5.43;;;4.93;;
7583;SDS011;3833;41.764;26.204;2023-06-24T09:02:35;5.20;;;4.72;;
7583;SDS011;3833;41.764;26.204;2023-06-24T09:05:03;5.27;;;4.77;;
7583;SDS011;3833;41.764;26.204;2023-06-24T09:07:32;5.23;;;4.73;;
7583;SDS011;3833;41.764;26.204;2023-06-24T09:10:01;5.73;;;5.13;;
7583;SDS011;3833;41.764;26.204;2023-06-24T09:12:31;5.43;;;4.93;;
7583;SDS011;3833;41.764;26.204;2023-06-24T09:15:00;4.60;;;4.27;;
7583;SDS011;3833;41.764;26.204;2023-06-24T09:17:27;5.13;;;4.53;;
7583;SDS011;3833;41.764;26.204;2023-06-24T09:19:54;6.13;;;4.75;;
7583;SDS011;3833;41.764;26.204;2023-06-24T09:22:29;5.30;;;4.90;;
7583;SDS011;3833;41.764;26.204;2023-06-24T09:25:00;4.82;;;4.43;;
7583;SDS011;3833;41.764;26.204;2023-06-24T09:27:33;7.00;;;4.75;;
7583;SDS011;3833;41.764;26.204;2023-06-24T09:30:01;5.43;;;4.35;;
7583;SDS011;3833;41.764;26.204;2023-06-24T09:32:44;5.65;;;4.22;;
7583;SDS011;3833;41.764;26.204;2023-06-24T09:35:11;4.72;;;4.18;;
7583;SDS011;3833;41.764;26.204;2023-06-24T09:37:38;5.22;;;4.82;;
7583;SDS011;3833;41.764;26.204;2023-06-24T09:40:06;4.72;;;4.22;;
7583;SDS011;3833;41.764;26.204;2023-06-24T09:42:46;5.00;;;4.50;;
7583;SDS011;3833;41.764;26.204;2023-06-24T09:45:19;4.35;;;4.00;;
7583;SDS011;3833;41.764;26.204;2023-06-24T09:47:47;4.68;;;4.05;;
7583;SDS011;3833;41.764;26.204;2023-06-24T09:50:14;4.68;;;4.28;;
7583;SDS011;3833;41.764;26.204;2023-06-24T09:52:41;5.85;;;4.40;;
7583;SDS011;3833;41.764;26.204;2023-06-24T09:55:10;7.82;;;4.35;;
7583;SDS011;3833;41.764;26.204;2023-06-24T09:57:38;4.55;;;4.25;;
7583;SDS011;3833;41.764;26.204;2023-06-24T10:00:07;4.65;;;4.25;;
7583;SDS011;3833;41.764;26.204;2023-06-24T10:02:37;4.45;;;4.05;;
7583;SDS011;3833;41.764;26.204;2023-06-24T10:05:05;4.75;;;4.30;;
7583;SDS011;3833;41.764;26.204;2023-06-24T10:07:32;4.80;;;4.40;;
7583;SDS011;3833;41.764;26.204;2023-06-24T10:10:01;4.28;;;3.65;;
7583;SDS011;3833;41.764;26.204;2023-06-24T10:12:30;4.13;;;3.83;;
7583;SDS011;3833;41.764;26.204;2023-06-24T10:14:58;4.40;;;4.00;;
7583;SDS011;3833;41.764;26.204;2023-06-24T10:17:25;4.72;;;4.32;;
7583;SDS011;3833;41.764;26.204;2023-06-24T10:19:54;4.85;;;4.45;;
7583;SDS011;3833;41.764;26.204;2023-06-24T10:22:21;5.20;;;4.35;;
7583;SDS011;3833;41.764;26.204;2023-06-24T10:24:51;4.32;;;3.92;;
7583;SDS011;3833;41.764;26.204;2023-06-24T10:27:18;7.32;;;4.78;;
7583;SDS011;3833;41.764;26.204;2023-06-24T10:29:48;4.88;;;4.30;;
7583;SDS011;3833;41.764;26.204;2023-06-24T10:32:16;6.28;;;4.28;;
7583;SDS011;3833;41.764;26.204;2023-06-24T10:34:44;5.95;;;4.65;;
7583;SDS011;3833;41.764;26.204;2023-06-24T10:37:14;4.35;;;4.05;;
7583;SDS011;3833;41.764;26.204;2023-06-24T10:39:45;5.28;;;4.45;;
7583;SDS011;3833;41.764;26.204;2023-06-24T10:42:36;5.40;;;4.25;;
7583;SDS011;3833;41.764;26.204;2023-06-24T10:45:14;4.80;;;4.40;;
7583;SDS011;3833;41.764;26.204;2023-06-24T10:47:45;4.95;;;4.45;;
7583;SDS011;3833;41.764;26.204;2023-06-24T10:50:14;4.20;;;3.90;;
7583;SDS011;3833;41.764;26.204;2023-06-24T10:52:43;5.35;;;4.20;;
7583;SDS011;3833;41.764;26.204;2023-06-24T10:55:13;5.55;;;4.57;;
7583;SDS011;3833;41.764;26.204;2023-06-24T10:57:43;5.30;;;4.60;;
7583;SDS011;3833;41.764;26.204;2023-06-24T11:00:11;6.25;;;4.80;;
7583;SDS011;3833;41.764;26.204;2023-06-24T11:02:42;4.93;;;4.53;;
7583;SDS011;3833;41.764;26.204;2023-06-24T11:05:10;5.03;;;4.50;;
7583;SDS011;3833;41.764;26.204;2023-06-24T11:07:37;4.75;;;4.35;;
7583;SDS011;3833;41.764;26.204;2023-06-24T11:10:06;4.65;;;4.28;;
7583;SDS011;3833;41.764;26.204;2023-06-24T11:12:34;4.47;;;4.10;;
7583;SDS011;3833;41.764;26.204;2023-06-24T11:15:03;6.00;;;4.53;;
7583;SDS011;3833;41.764;26.204;2023-06-24T11:17:32;5.15;;;4.28;;
7583;SDS011;3833;41.764;26.204;2023-06-24T11:20:06;6.32;;;4.40;;
7583;SDS011;3833;41.764;26.204;2023-06-24T11:22:33;5.13;;;4.23;;
7583;SDS011;3833;41.764;26.204;2023-06-24T11:25:00;4.82;;;4.38;;
7583;SDS011;3833;41.764;26.204;2023-06-24T11:27:29;4.35;;;3.95;;
7583;SDS011;3833;41.764;26.204;2023-06-24T11:29:57;7.13;;;4.85;;
7583;SDS011;3833;41.764;26.204;2023-06-24T11:32:34;4.30;;;3.90;;
7583;SDS011;3833;41.764;26.204;2023-06-24T11:35:02;3.95;;;3.58;;
7583;SDS011;3833;41.764;26.204;2023-06-24T11:37:30;4.88;;;4.47;;
7583;SDS011;3833;41.764;26.204;2023-06-24T11:40:01;4.55;;;4.15;;
7583;SDS011;3833;41.764;26.204;2023-06-24T11:42:31;4.32;;;3.92;;
7583;SDS011;3833;41.764;26.204;2023-06-24T11:45:01;4.30;;;3.90;;
7583;SDS011;3833;41.764;26.204;2023-06-24T11:47:30;4.28;;;3.88;;
7583;SDS011;3833;41.764;26.204;2023-06-24T11:49:58;5.07;;;4.10;;
7583;SDS011;3833;41.764;26.204;2023-06-24T11:52:31;5.45;;;3.75;;
7583;SDS011;3833;41.764;26.204;2023-06-24T11:54:59;3.97;;;3.67;;
7583;SDS011;3833;41.764;26.204;2023-06-24T12:00:19;6.28;;;3.78;;
7583;SDS011;3833;41.764;26.204;2023-06-24T12:02:55;5.80;;;3.80;;
7583;SDS011;3833;41.764;26.204;2023-06-24T12:05:22;4.03;;;3.72;;
7583;SDS011;3833;41.764;26.204;2023-06-24T12:07:53;4.10;;;3.53;;
7583;SDS011;3833;41.764;26.204;2023-06-24T12:10:24;4.20;;;3.78;;
7583;SDS011;3833;41.764;26.204;2023-06-24T12:12:52;3.42;;;3.13;;
7583;SDS011;3833;41.764;26.204;2023-06-24T12:15:19;4.50;;;4.10;;
7583;SDS011;3833;41.764;26.204;2023-06-24T12:17:46;4.80;;;4.05;;
7583;SDS011;3833;41.764;26.204;2023-06-24T12:20:13;3.97;;;3.67;;
7583;SDS011;3833;41.764;26.204;2023-06-24T12:22:41;4.72;;;4.22;;
7583;SDS011;3833;41.764;26.204;2023-06-24T12:25:08;4.47;;;3.28;;
7583;SDS011;3833;41.764;26.204;2023-06-24T12:27:35;4.85;;;4.45;;
7583;SDS011;3833;41.764;26.204;2023-06-24T12:30:05;3.90;;;3.60;;
7583;SDS011;3833;41.764;26.204;2023-06-24T12:32:33;6.97;;;4.05;;
7583;SDS011;3833;41.764;26.204;2023-06-24T12:35:01;4.22;;;3.83;;
7583;SDS011;3833;41.764;26.204;2023-06-24T12:37:29;4.32;;;4.00;;
7583;SDS011;3833;41.764;26.204;2023-06-24T12:39:57;4.23;;;3.83;;
7583;SDS011;3833;41.764;26.204;2023-06-24T12:42:27;4.25;;;3.80;;
7583;SDS011;3833;41.764;26.204;2023-06-24T12:44:54;4.43;;;3.92;;
7583;SDS011;3833;41.764;26.204;2023-06-24T12:47:22;5.32;;;4.40;;
7583;SDS011;3833;41.764;26.204;2023-06-24T12:49:49;4.53;;;4.13;;
7583;SDS011;3833;41.764;26.204;2023-06-24T12:52:20;3.90;;;3.60;;
7583;SDS011;3833;41.764;26.204;2023-06-24T12:54:47;6.50;;;4.13;;
7583;SDS011;3833;41.764;26.204;2023-06-24T12:57:14;5.25;;;3.58;;
7583;SDS011;3833;41.764;26.204;2023-06-24T12:59:41;3.80;;;3.50;;
7583;SDS011;3833;41.764;26.204;2023-06-24T13:02:08;3.42;;;3.17;;
7583;SDS011;3833;41.764;26.204;2023-06-24T13:04:37;3.60;;;3.30;;
7583;SDS011;3833;41.764;26.204;2023-06-24T13:07:05;3.80;;;3.50;;
7583;SDS011;3833;41.764;26.204;2023-06-24T13:09:32;4.00;;;3.67;;
7583;SDS011;3833;41.764;26.204;2023-06-24T13:11:59;3.80;;;3.42;;
7583;SDS011;3833;41.764;26.204;2023-06-24T13:14:26;3.75;;;3.45;;
7583;SDS011;3833;41.764;26.204;2023-06-24T13:16:55;3.88;;;3.55;;
7583;SDS011;3833;41.764;26.204;2023-06-24T13:19:22;3.90;;;3.50;;
7583;SDS011;3833;41.764;26.204;2023-06-24T13:21:51;4.70;;;3.43;;
7583;SDS011;3833;41.764;26.204;2023-06-24T13:24:18;6.85;;;3.90;;
7583;SDS011;3833;41.764;26.204;2023-06-24T13:26:45;3.70;;;3.40;;
7583;SDS011;3833;41.764;26.204;2023-06-24T13:29:15;4.30;;;3.90;;
7583;SDS011;3833;41.764;26.204;2023-06-24T13:31:45;4.93;;;3.97;;
7583;SDS011;3833;41.764;26.204;2023-06-24T13:34:12;4.15;;;3.60;;
7583;SDS011;3833;41.764;26.204;2023-06-24T13:36:39;4.95;;;4.20;;
7583;SDS011;3833;41.764;26.204;2023-06-24T13:39:08;4.15;;;3.75;;
7583;SDS011;3833;41.764;26.204;2023-06-24T13:41:37;3.92;;;3.20;;
7583;SDS011;3833;41.764;26.204;2023-06-24T13:44:04;5.82;;;3.72;;
7583;SDS011;3833;41.764;26.204;2023-06-24T13:46:31;4.03;;;3.33;;
7583;SDS011;3833;41.764;26.204;2023-06-24T13:48:59;4.97;;;4.30;;
7583;SDS011;3833;41.764;26.204;2023-06-24T13:51:28;7.05;;;3.97;;
7583;SDS011;3833;41.764;26.204;2023-06-24T13:53:55;4.47;;;4.07;;
7583;SDS011;3833;41.764;26.204;2023-06-24T13:56:23;4.70;;;4.00;;
7583;SDS011;3833;41.764;26.204;2023-06-24T13:58:51;4.80;;;3.78;;
7583;SDS011;3833;41.764;26.204;2023-06-24T14:01:19;4.68;;;4.28;;
7583;SDS011;3833;41.764;26.204;2023-06-24T14:03:49;4.22;;;3.83;;
7583;SDS011;3833;41.764;26.204;2023-06-24T14:06:17;6.03;;;3.95;;
7583;SDS011;3833;41.764;26.204;2023-06-24T14:08:45;5.73;;;4.10;;
7583;SDS011;3833;41.764;26.204;2023-06-24T14:11:12;4.70;;;3.65;;
7583;SDS011;3833;41.764;26.204;2023-06-24T14:13:41;4.15;;;3.75;;
7583;SDS011;3833;41.764;26.204;2023-06-24T14:16:08;3.97;;;3.67;;
7583;SDS011;3833;41.764;26.204;2023-06-24T14:18:37;4.17;;;3.70;;
7583;SDS011;3833;41.764;26.204;2023-06-24T14:21:05;3.93;;;3.57;;
7583;SDS011;3833;41.764;26.204;2023-06-24T14:23:32;4.10;;;3.70;;
7583;SDS011;3833;41.764;26.204;2023-06-24T14:26:03;5.40;;;3.40;;
7583;SDS011;3833;41.764;26.204;2023-06-24T14:28:30;3.53;;;3.23;;
7583;SDS011;3833;41.764;26.204;2023-06-24T14:30:58;3.80;;;3.40;;
7583;SDS011;3833;41.764;26.204;2023-06-24T14:33:25;3.63;;;3.33;;
7583;SDS011;3833;41.764;26.204;2023-06-24T14:35:52;4.07;;;3.73;;
7583;SDS011;3833;41.764;26.204;2023-06-24T14:38:20;4.00;;;3.60;;
7583;SDS011;3833;41.764;26.204;2023-06-24T14:40:47;4.23;;;3.67;;
7583;SDS011;3833;41.764;26.204;2023-06-24T14:43:14;4.10;;;3.37;;
7583;SDS011;3833;41.764;26.204;2023-06-24T14:45:42;4.43;;;3.07;;
7583;SDS011;3833;41.764;26.204;2023-06-24T14:48:10;3.27;;;2.90;;
7583;SDS011;3833;41.764;26.204;2023-06-24T14:50:37;4.07;;;3.67;;
7583;SDS011;3833;41.764;26.204;2023-06-24T14:53:04;5.87;;;3.43;;
7583;SDS011;3833;41.764;26.204;2023-06-24T14:55:31;3.40;;;3.10;;
7583;SDS011;3833;41.764;26.204;2023-06-24T14:57:58;4.63;;;3.10;;
7583;SDS011;3833;41.764;26.204;2023-06-24T15:00:25;4.30;;;3.20;;
7583;SDS011;3833;41.764;26.204;2023-06-24T15:02:52;3.97;;;3.60;;
7583;SDS011;3833;41.764;26.204;2023-06-24T15:05:20;3.57;;;3.27;;
7583;SDS011;3833;41.764;26.204;2023-06-24T15:07:47;4.27;;;3.50;;